Time;durP1;ratioP1;P1;durP2;ratioP2;P2;SDS_P1;SDS_P2;PMS_P1;PMS_P2;Temp;Humidity;BMP_temperature;BMP_pressure;BME280_temperature;BME280_humidity;BME280_pressure;Samples;Min_cycle;Max_cycle;Signal;HPM_P1;HPM_P2
2023/11/19 00:01:57;;;;;;;0.00;0.00;;;;;;;9.96;100.00;99648.97;4939740;28;20035;-78
2023/11/19 00:04:35;;;;;;;0.00;0.00;;;;;;;9.95;100.00;99650.06;4936643;28;20046;-77
2023/11/19 00:07:03;;;;;;;0.00;0.00;;;;;;;10.04;100.00;99685.81;4917475;28;20124;-77
2023/11/19 00:09:31;;;;;;;0.00;0.00;;;;;;;9.91;100.00;99676.31;4938345;29;20042;-77
2023/11/19 00:12:00;;;;;;;0.00;0.00;;;;;;;9.86;100.00;99662.69;4930445;28;20027;-77
2023/11/19 00:14:29;;;;;;;0.00;0.00;;;;;;;9.83;100.00;99652.31;4927648;29;20027;-77
2023/11/19 00:16:54;;;;;;;0.00;0.00;;;;;;;9.92;100.00;99656.09;4931403;28;20026;-76
2023/11/19 00:19:27;;;;;;;0.00;0.00;;;;;;;10.08;100.00;99661.50;4935051;29;20023;-77
2023/11/19 00:21:53;;;;;;;0.00;0.00;;;;;;;10.02;100.00;99659.91;4915562;28;20031;-77
2023/11/19 00:24:18;;;;;;;0.00;0.00;;;;;;;10.04;100.00;99665.88;4930583;29;20034;-76
2023/11/19 00:26:53;;;;;;;0.00;0.00;;;;;;;9.74;100.00;99643.91;4910929;28;20043;-76
2023/11/19 00:29:20;;;;;;;0.00;0.00;;;;;;;10.01;100.00;99693.75;4943988;28;20051;-76
2023/11/19 00:31:47;;;;;;;0.00;0.00;;;;;;;9.74;100.00;99670.41;4955918;28;20027;-75
2023/11/19 00:34:16;;;;;;;0.00;0.00;;;;;;;9.53;100.00;99658.72;4963834;28;20188;-77
2023/11/19 00:37:04;;;;;;;0.00;0.00;;;;;;;9.47;100.00;99649.72;4945776;28;20020;-77
2023/11/19 00:39:29;;;;;;;0.00;0.00;;;;;;;9.57;100.00;99660.59;4923957;28;20457;-79
2023/11/19 00:41:57;;;;;;;0.00;0.00;;;;;;;9.63;100.00;99641.50;4949721;28;20037;-80
2023/11/19 00:44:23;;;;;;;0.00;0.00;;;;;;;9.82;100.00;99671.72;4955593;28;20490;-77
2023/11/19 00:46:50;;;;;;;0.05;0.05;;;;;;;9.70;100.00;99642.00;4917330;28;20094;-77
2023/11/19 00:49:16;;;;;;;0.00;0.00;;;;;;;9.81;100.00;99672.81;4960334;28;20022;-75
2023/11/19 00:51:43;;;;;;;0.00;0.00;;;;;;;9.57;100.00;99660.59;4940167;28;21397;-75
2023/11/19 00:54:11;;;;;;;0.00;0.00;;;;;;;9.40;100.00;99638.28;4927430;28;20061;-77
2023/11/19 00:56:39;;;;;;;0.00;0.00;;;;;;;9.55;100.00;99667.44;4949605;28;20030;-76
2023/11/19 00:59:05;;;;;;;0.10;0.10;;;;;;;9.36;100.00;99645.38;4928671;28;20844;-77
2023/11/19 01:01:30;;;;;;;0.00;0.00;;;;;;;9.31;100.00;99629.84;4948185;28;20063;-76
2023/11/19 01:04:01;;;;;;;0.10;0.10;;;;;;;9.22;100.00;99632.31;4944797;28;20580;-77
2023/11/19 01:06:30;;;;;;;0.00;0.00;;;;;;;9.25;100.00;99631.75;4964396;28;20057;-79
2023/11/19 01:08:58;;;;;;;0.10;0.10;;;;;;;9.33;100.00;99624.09;4935568;28;20024;-78
2023/11/19 01:11:25;;;;;;;0.10;0.10;;;;;;;9.42;100.00;99627.91;4935055;28;20469;-77
2023/11/19 01:13:55;;;;;;;0.00;0.00;;;;;;;9.35;100.00;99624.66;4945542;28;20031;-77
2023/11/19 01:16:23;;;;;;;0.00;0.00;;;;;;;9.51;100.00;99628.97;4936854;28;20031;-77
2023/11/19 01:18:49;;;;;;;0.00;0.00;;;;;;;9.51;100.00;99609.88;4940171;28;20034;-76
2023/11/19 01:21:15;;;;;;;0.00;0.00;;;;;;;9.68;100.00;99639.56;4935611;28;20031;-77
2023/11/19 01:23:46;;;;;;;0.00;0.00;;;;;;;9.69;100.00;99624.00;4938644;28;20023;-77
2023/11/19 01:26:12;;;;;;;0.00;0.00;;;;;;;9.69;100.00;99629.44;4950581;28;20043;-78
2023/11/19 01:28:44;;;;;;;0.00;0.00;;;;;;;9.71;100.00;99649.09;4938059;28;20089;-77
2023/11/19 01:31:15;;;;;;;0.10;0.10;;;;;;;9.73;100.00;99631.34;4936698;28;20378;-79
2023/11/19 01:33:41;;;;;;;0.00;0.00;;;;;;;9.85;100.00;99650.13;4946224;28;20023;-77
2023/11/19 01:36:18;;;;;;;0.00;0.00;;;;;;;9.72;100.00;99634.34;4922502;28;20024;-77
2023/11/19 01:38:48;;;;;;;0.10;0.10;;;;;;;9.82;100.00;99653.41;4962475;28;20027;-77
2023/11/19 01:41:18;;;;;;;0.00;0.00;;;;;;;9.68;100.00;99619.63;4936128;28;20054;-78
2023/11/19 01:43:47;;;;;;;0.00;0.00;;;;;;;9.73;100.00;99644.19;4925321;28;20042;-79
2023/11/19 01:46:12;;;;;;;0.00;0.00;;;;;;;9.79;100.00;99651.25;4946885;28;20441;-77
2023/11/19 01:48:43;;;;;;;0.00;0.00;;;;;;;9.68;100.00;99623.19;4933425;28;20080;-78
2023/11/19 01:51:11;;;;;;;0.00;0.00;;;;;;;9.69;100.00;99629.44;4945965;28;20073;-77
2023/11/19 01:53:40;;;;;;;0.00;0.00;;;;;;;9.70;100.00;99611.97;4931134;28;20076;-77
2023/11/19 01:56:16;;;;;;;0.03;0.03;;;;;;;9.64;100.00;99624.00;4940389;28;20495;-76
2023/11/19 01:58:44;;;;;;;0.10;0.10;;;;;;;9.71;100.00;99638.16;4941907;28;20034;-78
2023/11/19 02:01:11;;;;;;;0.00;0.00;;;;;;;9.76;100.00;99646.34;4940156;28;20035;-77
2023/11/19 02:03:39;;;;;;;0.00;0.00;;;;;;;9.83;100.00;99646.88;4966402;28;20037;-79
2023/11/19 02:06:05;;;;;;;0.10;0.10;;;;;;;9.75;100.00;99636.50;4962743;28;20045;-77
2023/11/19 02:08:31;;;;;;;0.00;0.00;;;;;;;9.66;100.00;99622.63;4929516;28;20043;-76
2023/11/19 02:10:58;;;;;;;0.00;0.00;;;;;;;9.66;100.00;99611.72;4933867;28;20043;-75
2023/11/19 02:13:25;;;;;;;0.00;0.00;;;;;;;9.59;100.00;99603.84;4934913;28;20038;-78
2023/11/19 02:15:53;;;;;;;0.00;0.00;;;;;;;9.75;100.00;99612.78;4953426;28;20045;-77
2023/11/19 02:18:26;;;;;;;0.00;0.00;;;;;;;9.81;100.00;99612.72;4947565;28;20027;-78
2023/11/19 02:20:57;;;;;;;0.00;0.00;;;;;;;9.60;100.00;99566.44;4949991;28;20110;-76
2023/11/19 02:23:27;;;;;;;0.00;0.00;;;;;;;9.83;100.00;99586.78;4948022;28;20133;-76
2023/11/19 02:26:08;;;;;;;0.00;0.00;;;;;;;9.85;100.00;99583.78;4967172;28;20062;-76
2023/11/19 02:28:37;;;;;;;0.00;0.00;;;;;;;9.74;100.00;99566.66;4963665;28;20118;-77
2023/11/19 02:31:09;;;;;;;0.00;0.00;;;;;;;9.72;100.00;99553.25;4960871;28;20485;-76
2023/11/19 02:33:37;;;;;;;0.00;0.00;;;;;;;9.76;100.00;99587.09;4943774;28;20023;-77
2023/11/19 02:36:04;;;;;;;0.00;0.00;;;;;;;9.76;100.00;99591.75;4960616;28;20541;-76
2023/11/19 02:38:32;;;;;;;0.00;0.00;;;;;;;9.81;100.00;99588.97;4963745;28;20037;-75
2023/11/19 02:40:58;;;;;;;0.00;0.00;;;;;;;9.82;100.00;99600.72;4944871;28;20097;-75
2023/11/19 02:43:23;;;;;;;0.00;0.00;;;;;;;9.76;100.00;99586.28;4960973;28;20795;-76
2023/11/19 02:45:49;;;;;;;0.00;0.00;;;;;;;9.84;100.00;99599.34;4932758;28;20042;-74
2023/11/19 02:48:15;;;;;;;0.00;0.00;;;;;;;9.93;100.00;99599.59;4943050;28;20027;-75
2023/11/19 02:50:42;;;;;;;0.00;0.00;;;;;;;9.80;100.00;99587.34;4953205;28;20815;-76
2023/11/19 02:53:07;;;;;;;0.00;0.00;;;;;;;9.93;100.00;99605.84;4948903;28;20031;-75
2023/11/19 02:55:37;;;;;;;0.00;0.00;;;;;;;9.75;100.00;99573.72;4946398;28;20022;-74
2023/11/19 02:58:09;;;;;;;0.00;0.00;;;;;;;9.69;100.00;99564.72;4943670;28;20139;-75
2023/11/19 03:00:47;;;;;;;0.10;0.10;;;;;;;9.73;100.00;99579.47;4937428;28;20129;-76
2023/11/19 03:03:22;;;;;;;0.00;0.00;;;;;;;9.84;100.00;99599.34;4945096;28;20074;-77
2023/11/19 03:05:48;;;;;;;0.00;0.00;;;;;;;9.90;100.00;99602.84;4938264;28;20063;-76
2023/11/19 03:08:15;;;;;;;0.00;0.00;;;;;;;9.82;100.00;99579.69;4941054;28;20054;-75
2023/11/19 03:11:01;;;;;;;0.00;0.00;;;;;;;9.85;100.00;99562.75;4947358;28;20041;-75
2023/11/19 03:13:27;;;;;;;0.00;0.00;;;;;;;10.04;100.00;99594.84;4943890;28;20050;-74
2023/11/19 03:15:53;;;;;;;0.00;0.00;;;;;;;9.96;100.00;99590.81;4927256;28;20035;-75
2023/11/19 03:18:19;;;;;;;0.00;0.00;;;;;;;10.04;100.00;99570.28;4929242;28;20030;-75
2023/11/19 03:20:46;;;;;;;0.00;0.00;;;;;;;9.94;100.00;99554.75;4918804;28;20027;-76
2023/11/19 03:23:12;;;;;;;0.00;0.00;;;;;;;9.92;100.00;99568.69;4950263;28;20034;-77
2023/11/19 03:25:37;;;;;;;0.00;0.00;;;;;;;9.83;100.00;99551.28;4941373;28;20051;-77
2023/11/19 03:28:06;;;;;;;0.00;0.00;;;;;;;10.00;100.00;99577.41;4943478;28;20425;-75
2023/11/19 03:30:32;;;;;;;0.00;0.00;;;;;;;9.92;100.00;99563.25;4960479;28;20430;-75
2023/11/19 03:33:01;;;;;;;0.00;0.00;;;;;;;9.74;100.00;99533.88;4928732;28;20030;-74
2023/11/19 03:35:27;;;;;;;0.00;0.00;;;;;;;9.83;100.00;99543.09;4931164;28;20034;-75
2023/11/19 03:37:55;;;;;;;0.00;0.00;;;;;;;9.81;100.00;99542.53;4947590;28;20034;-77
2023/11/19 03:40:21;;;;;;;0.10;0.10;;;;;;;9.86;100.00;99558.91;4950228;28;20038;-77
2023/11/19 03:42:46;;;;;;;0.10;0.10;;;;;;;9.93;100.00;99548.50;4941264;28;20031;-79
2023/11/19 03:45:15;;;;;;;0.00;0.00;;;;;;;10.01;100.00;99554.47;4935297;28;20035;-76
2023/11/19 03:47:41;;;;;;;0.00;0.00;;;;;;;9.90;100.00;99532.69;4949119;28;20093;-74
2023/11/19 03:50:10;;;;;;;0.00;0.00;;;;;;;9.96;100.00;99523.34;4945503;28;21555;-75
2023/11/19 03:52:37;;;;;;;0.00;0.00;;;;;;;9.98;100.00;99547.63;4966033;28;20031;-76
2023/11/19 03:55:05;;;;;;;0.00;0.00;;;;;;;10.06;100.00;99559.88;4968264;28;20039;-75
2023/11/19 03:57:31;;;;;;;0.00;0.00;;;;;;;10.02;100.00;99556.09;4929119;28;20022;-75
2023/11/19 03:59:58;;;;;;;0.00;0.00;;;;;;;10.07;100.00;99558.78;4947721;28;20066;-76
2023/11/19 04:02:27;;;;;;;0.00;0.00;;;;;;;10.11;100.00;99546.19;4962383;28;20017;-78
2023/11/19 04:04:53;;;;;;;0.00;0.00;;;;;;;10.13;100.00;99535.78;4951670;28;20027;-77
2023/11/19 04:07:22;;;;;;;0.00;0.00;;;;;;;10.03;99.65;99531.22;4939642;28;20027;-79
2023/11/19 04:09:47;;;;;;;0.00;0.00;;;;;;;10.00;100.00;99536.44;4959964;28;20038;-78
2023/11/19 04:12:12;;;;;;;0.00;0.00;;;;;;;10.10;100.00;99537.19;4941194;28;20038;-78
2023/11/19 04:14:41;;;;;;;0.00;0.00;;;;;;;9.93;100.00;99529.38;4932589;28;20038;-77
2023/11/19 04:17:06;;;;;;;0.05;0.05;;;;;;;10.09;100.00;99556.56;4960497;28;20118;-78
2023/11/19 04:19:32;;;;;;;0.00;0.00;;;;;;;9.99;100.00;99534.78;4942878;28;20114;-78
2023/11/19 04:22:00;;;;;;;0.00;0.00;;;;;;;9.95;100.00;99529.91;4928131;28;20090;-77
2023/11/19 04:24:25;;;;;;;0.00;0.00;;;;;;;10.04;100.00;99542.97;4932687;28;20821;-79
2023/11/19 04:26:52;;;;;;;0.00;0.00;;;;;;;10.03;100.00;99552.25;4916350;28;20143;-78
2023/11/19 04:29:18;;;;;;;0.00;0.00;;;;;;;10.00;100.00;99536.44;4932421;28;20038;-78
2023/11/19 04:31:46;;;;;;;0.00;0.00;;;;;;;10.16;100.00;99572.66;4937257;28;20030;-78
2023/11/19 04:34:12;;;;;;;0.00;0.00;;;;;;;10.07;100.00;99558.78;4941567;28;20039;-77
2023/11/19 04:36:40;;;;;;;0.00;0.00;;;;;;;9.95;100.00;99532.63;4949174;28;20026;-78
2023/11/19 04:39:16;;;;;;;0.00;0.00;;;;;;;10.19;100.00;99567.44;4947445;28;20085;-77
2023/11/19 04:41:49;;;;;;;0.10;0.10;;;;;;;10.09;100.00;99545.66;4943074;28;20031;-77
2023/11/19 04:44:15;;;;;;;0.00;0.00;;;;;;;10.12;100.00;99566.94;4945997;28;20385;-77
2023/11/19 04:46:43;;;;;;;0.00;0.00;;;;;;;10.04;100.00;99549.22;4925075;28;20027;-76
2023/11/19 04:49:10;;;;;;;0.00;0.00;;;;;;;10.09;100.00;99559.31;4948212;28;20030;-78
2023/11/19 04:51:44;;;;;;;0.00;0.00;;;;;;;10.10;100.00;99556.31;4938808;28;20015;-78
2023/11/19 04:54:19;;;;;;;0.00;0.00;;;;;;;10.01;100.00;99549.00;4970602;28;20031;-79
2023/11/19 04:56:47;;;;;;;0.00;0.00;;;;;;;10.11;100.00;99529.81;4952229;28;20027;-79
2023/11/19 04:59:24;;;;;;;0.00;0.00;;;;;;;10.23;100.00;99556.75;4937090;28;20058;-75
2023/11/19 05:01:50;;;;;;;0.00;0.00;;;;;;;10.26;98.65;99567.09;4950104;28;20043;-77
2023/11/19 05:04:18;;;;;;;0.10;0.10;;;;;;;10.14;97.46;99531.97;4928986;28;20159;-79
2023/11/19 05:06:44;;;;;;;0.10;0.10;;;;;;;10.01;97.42;99518.94;4931822;28;20118;-79
2023/11/19 05:09:12;;;;;;;0.00;0.00;;;;;;;10.20;97.40;99549.94;4958279;28;20082;-78
2023/11/19 05:11:38;;;;;;;0.00;0.00;;;;;;;9.99;97.84;99523.88;4925244;28;20035;-78
2023/11/19 05:14:04;;;;;;;0.00;0.00;;;;;;;10.05;97.35;99530.94;4947666;28;20026;-78
2023/11/19 05:16:29;;;;;;;0.00;0.00;;;;;;;9.86;96.60;99487.91;4913751;28;20042;-80
2023/11/19 05:18:55;;;;;;;0.00;0.00;;;;;;;10.00;95.76;99509.13;4941070;28;20038;-80
2023/11/19 05:21:27;;;;;;;0.00;0.00;;;;;;;10.04;96.08;99516.44;4964308;28;20373;-80
2023/11/19 05:23:54;;;;;;;0.00;0.00;;;;;;;9.93;95.12;99504.81;4961070;28;20499;-79
2023/11/19 05:26:21;;;;;;;0.00;0.00;;;;;;;9.92;94.74;99507.81;4936221;28;20052;-79
2023/11/19 05:28:47;;;;;;;0.00;0.00;;;;;;;9.94;94.54;99500.13;4947137;28;20018;-79
2023/11/19 05:31:27;;;;;;;0.00;0.00;;;;;;;9.82;94.12;99489.56;4944435;28;20077;-78
2023/11/19 05:33:52;;;;;;;0.00;0.00;;;;;;;9.87;94.08;99495.03;4952714;28;20042;-79
2023/11/19 05:36:18;;;;;;;0.00;0.00;;;;;;;10.00;93.74;99509.13;4950242;28;20493;-77
2023/11/19 05:38:44;;;;;;;0.00;0.00;;;;;;;9.92;92.63;99503.16;4954123;28;20023;-77
2023/11/19 05:41:12;;;;;;;0.00;0.00;;;;;;;9.96;92.29;99509.69;4970762;28;20038;-79
2023/11/19 05:43:40;;;;;;;0.00;0.00;;;;;;;9.99;91.41;99496.56;4941901;28;20039;-79
2023/11/19 05:46:06;;;;;;;0.00;0.00;;;;;;;9.85;90.15;99480.81;4929203;28;20069;-78
2023/11/19 05:48:32;;;;;;;0.00;0.00;;;;;;;9.92;90.18;99489.50;4957112;28;20027;-78
2023/11/19 05:51:05;;;;;;;0.10;0.10;;;;;;;10.02;89.22;99507.75;4937160;28;20115;-78
2023/11/19 05:53:31;;;;;;;0.00;0.00;;;;;;;10.04;89.42;99537.50;4929956;28;20028;-78
2023/11/19 05:55:57;;;;;;;0.00;0.00;;;;;;;10.11;88.90;99524.34;4935968;28;20031;-80
2023/11/19 05:58:28;;;;;;;0.00;0.00;;;;;;;10.04;89.75;99527.38;4934975;28;20579;-79
2023/11/19 06:00:56;;;;;;;0.00;0.00;;;;;;;10.05;89.77;99517.28;4950791;28;20018;-81
2023/11/19 06:03:23;;;;;;;0.00;0.00;;;;;;;10.03;89.27;99524.94;4946097;28;20168;-78
2023/11/19 06:05:49;;;;;;;0.00;0.00;;;;;;;9.96;90.10;99514.34;4948751;28;20795;-80
2023/11/19 06:08:15;;;;;;;0.00;0.00;;;;;;;9.88;89.94;99513.00;4942768;28;20062;-79
2023/11/19 06:10:41;;;;;;;0.10;0.10;;;;;;;9.92;89.16;99530.47;4944328;28;20109;-80
2023/11/19 06:13:09;;;;;;;0.00;0.00;;;;;;;9.90;88.98;99537.31;4934479;28;20713;-79
2023/11/19 06:15:35;;;;;;;0.00;0.00;;;;;;;9.99;88.88;99523.88;4910377;28;20027;-79
2023/11/19 06:18:01;;;;;;;0.00;0.00;;;;;;;9.94;89.38;99527.44;4919639;28;20031;-80
2023/11/19 06:20:29;;;;;;;0.00;0.00;;;;;;;9.93;89.36;99532.09;4909648;28;20027;-78
2023/11/19 06:22:56;;;;;;;0.00;0.00;;;;;;;9.94;89.48;99549.31;4948264;28;20560;-80
2023/11/19 06:25:23;;;;;;;0.10;0.10;;;;;;;9.94;89.31;99565.69;4928934;28;20046;-79
2023/11/19 06:27:49;;;;;;;0.00;0.00;;;;;;;9.89;90.05;99561.06;4932141;28;20023;-79
2023/11/19 06:30:15;;;;;;;0.00;0.00;;;;;;;9.89;90.69;99555.63;4945220;28;20034;-81
2023/11/19 06:32:40;;;;;;;0.00;0.00;;;;;;;10.05;89.44;99563.72;4949258;28;20062;-79
2023/11/19 06:35:16;;;;;;;0.00;0.00;;;;;;;9.91;89.78;99528.81;4944645;28;20470;-78
2023/11/19 06:37:42;;;;;;;0.10;0.10;;;;;;;10.05;90.27;99555.53;4933339;28;20045;-79
2023/11/19 06:40:09;;;;;;;0.00;0.00;;;;;;;9.87;91.06;99533.25;4938233;28;20473;-80
2023/11/19 06:42:57;;;;;;;0.00;0.00;;;;;;;9.89;90.52;99547.44;4961609;28;20125;-82
2023/11/19 06:45:25;;;;;;;0.00;0.00;;;;;;;9.79;90.35;99525.66;4950715;28;20035;-78
2023/11/19 06:47:52;;;;;;;0.00;0.00;;;;;;;10.00;90.19;99536.44;4936078;28;20133;-78
2023/11/19 06:50:19;;;;;;;0.00;0.00;;;;;;;9.94;90.53;99531.03;4939796;28;20023;-78
2023/11/19 06:52:47;;;;;;;0.00;0.00;;;;;;;10.02;89.95;99542.44;4914842;28;20646;-78
2023/11/19 06:55:14;;;;;;;0.00;0.00;;;;;;;9.88;90.60;99521.19;4946840;28;20030;-80
2023/11/19 06:57:49;;;;;;;0.00;0.00;;;;;;;9.80;91.26;99505.44;4932119;28;20023;-79
2023/11/19 07:00:28;;;;;;;;;;;;;;;;;;;;;
2023/11/19 07:03:05;;;;;;;0.00;0.00;;;;;;;9.78;91.99;99524.00;4951709;28;20740;-79
2023/11/19 07:05:38;;;;;;;0.00;0.00;;;;;;;9.91;92.80;99547.94;4929940;28;20405;-82
2023/11/19 07:08:12;;;;;;;0.00;0.00;;;;;;;9.74;92.63;99539.34;4945430;28;20450;-79
2023/11/19 07:14:10;;;;;;;;;;;;;;;;;;;;;
2023/11/19 07:16:41;;;;;;;0.00;0.00;;;;;;;9.71;93.23;99548.06;4950621;28;20046;-78
2023/11/19 07:19:10;;;;;;;0.00;0.00;;;;;;;9.62;93.12;99539.66;4949777;28;20065;-80
2023/11/19 07:21:43;;;;;;;0.00;0.00;;;;;;;9.78;94.47;99592.25;4940519;28;20027;-79
2023/11/19 07:24:16;;;;;;;0.00;0.00;;;;;;;9.89;94.39;99574.72;4947576;28;20066;-80
2023/11/19 07:26:48;;;;;;;0.00;0.00;;;;;;;9.92;94.75;99571.44;4927216;28;20874;-79
2023/11/19 07:29:17;;;;;;;0.00;0.00;;;;;;;9.69;94.88;99531.16;4945446;28;20422;-80
2023/11/19 07:31:45;;;;;;;0.00;0.00;;;;;;;9.90;94.93;99576.38;4938265;28;20043;-80
2023/11/19 07:34:13;;;;;;;0.00;0.00;;;;;;;9.86;94.46;99558.91;4944304;28;20046;-80
2023/11/19 07:36:44;;;;;;;0.00;0.00;;;;;;;9.79;94.47;99563.88;4921943;28;20046;-79
2023/11/19 07:39:15;;;;;;;0.00;0.00;;;;;;;9.95;93.92;99551.75;4948664;28;20035;-81
2023/11/19 07:41:58;;;;;;;;;;;;;;;;;;;;;
2023/11/19 07:48:23;;;;;;;;;;;;;;;;;;;;;
2023/11/19 07:51:14;;;;;;;0.00;0.00;;;;;;;10.48;91.72;99577.63;4954264;28;20047;-77
2023/11/19 07:57:15;;;;;;;0.00;0.00;;;;;;;10.37;93.01;99576.09;4908191;28;20035;-76
2023/11/19 08:00:16;;;;;;;0.00;0.00;;;;;;;10.11;93.48;99532.53;4941953;28;20031;-76
2023/11/19 08:02:51;;;;;;;;;;;;;;;;;;;;;
2023/11/19 08:05:24;;;;;;;0.00;0.00;;;;;;;10.74;91.52;99605.56;4935318;28;20018;-77
2023/11/19 08:08:21;;;;;;;0.00;0.00;;;;;;;11.14;89.88;99580.81;4945099;28;20063;-79
2023/11/19 08:11:11;;;;;;;0.00;0.00;;;;;;;11.23;89.04;99564.59;4950544;28;20882;-79
2023/11/19 08:14:00;;;;;;;0.00;0.00;;;;;;;11.39;87.46;99549.63;4943502;28;20096;-77
2023/11/19 08:17:06;;;;;;;0.00;0.00;;;;;;;11.91;86.45;99582.63;4944216;28;20022;-75
2023/11/19 08:20:00;;;;;;;0.00;0.00;;;;;;;12.07;84.52;99555.03;4950264;28;20101;-77
2023/11/19 08:25:14;;;;;;;0.00;0.00;;;;;;;11.97;81.63;99576.00;4950777;28;20093;-78
2023/11/19 08:27:44;;;;;;;0.00;0.00;;;;;;;11.82;82.12;99565.22;4953698;28;20043;-78
2023/11/19 08:30:15;;;;;;;0.00;0.00;;;;;;;11.89;82.24;99601.28;4939599;28;20200;-77
2023/11/19 08:33:06;;;;;;;0.00;0.00;;;;;;;12.01;82.28;99620.06;4964339;28;20031;-78
2023/11/19 08:35:48;;;;;;;;;;;;;;;;;;;;;
2023/11/19 08:38:24;;;;;;;0.00;0.00;;;;;;;12.52;79.32;99585.56;4965601;28;20041;-77
2023/11/19 08:41:02;;;;;;;0.00;0.00;;;;;;;12.72;77.38;99571.50;4932416;28;20033;-78
2023/11/19 08:43:37;;;;;;;;;;;;;;;;;;;;;
2023/11/19 08:46:14;;;;;;;;;;;;;;;;;;;;;
2023/11/19 08:48:58;;;;;;;;;;;;;;;;;;;;;
2023/11/19 08:52:14;;;;;;;;;;;;;;;;;;;;;
2023/11/19 08:55:06;;;;;;;0.00;0.00;;;;;;;12.44;75.74;99570.63;4949066;28;20039;-79
2023/11/19 08:57:42;;;;;;;;;;;;;;;;;;;;;
2023/11/19 09:00:32;;;;;;;;;;;;;;;;;;;;;
2023/11/19 09:03:20;;;;;;;0.00;0.00;;;;;;;14.33;66.79;99567.13;4942090;28;20027;-76
2023/11/19 09:06:57;;;;;;;;;;;;;;;;;;;;;
2023/11/19 09:09:40;;;;;;;0.00;0.00;;;;;;;14.07;68.02;99561.41;4949130;28;20666;-76
2023/11/19 09:12:11;;;;;;;0.00;0.00;;;;;;;15.91;62.40;99560.41;4927790;28;20035;-75
2023/11/19 09:14:39;;;;;;;0.00;0.00;;;;;;;17.17;58.69;99543.84;4948197;28;20496;-75
2023/11/19 09:17:17;;;;;;;;;;;;;;;;;;;;;
2023/11/19 09:19:45;;;;;;;0.00;0.00;;;;;;;19.29;50.93;99556.38;4947166;28;20042;-77
2023/11/19 09:22:11;;;;;;;0.00;0.00;;;;;;;19.49;48.40;99570.47;4930452;28;20030;-79
2023/11/19 09:25:16;;;;;;;;;;;;;;;;;;;;;
2023/11/19 09:27:55;;;;;;;0.00;0.00;;;;;;;20.40;47.12;99575.63;4935017;28;20046;-77
2023/11/19 09:30:22;;;;;;;0.00;0.00;;;;;;;19.57;47.25;99566.78;4914768;28;20036;-78
2023/11/19 09:33:33;;;;;;;;;;;;;;;;;;;;;
2023/11/19 09:36:47;;;;;;;;;;;;;;;;;;;;;
2023/11/19 09:39:20;;;;;;;0.00;0.00;;;;;;;14.92;60.21;99545.03;4953705;28;20079;-76
2023/11/19 09:41:49;;;;;;;0.00;0.00;;;;;;;13.94;64.03;99527.34;4941474;28;20598;-80
2023/11/19 09:45:00;;;;;;;;;;;;;;;;;;;;;
2023/11/19 09:50:44;;;;;;;0.00;0.00;;;;;;;13.29;70.94;99584.19;4947320;28;20035;-77
2023/11/19 09:53:15;;;;;;;0.00;0.00;;;;;;;12.83;72.02;99522.75;4921952;28;20035;-78
2023/11/19 09:55:41;;;;;;;0.00;0.00;;;;;;;13.34;72.12;99624.47;4964932;28;20408;-79
2023/11/19 09:58:18;;;;;;;0.00;0.00;;;;;;;13.19;72.04;99555.00;4946551;28;20517;-80
2023/11/19 10:01:34;;;;;;;;;;;;;;;;;;;;;
2023/11/19 10:04:39;;;;;;;;;;;;;;;;;;;;;
2023/11/19 10:07:07;;;;;;;0.00;0.00;;;;;;;12.71;75.39;99550.69;4962823;28;20056;-76
2023/11/19 10:09:46;;;;;;;;;;;;;;;;;;;;;
2023/11/19 10:12:22;;;;;;;;;;;;;;;;;;;;;
2023/11/19 10:14:51;;;;;;;0.00;0.00;;;;;;;12.57;76.52;99560.78;4960237;28;20023;-79
2023/11/19 10:20:51;;;;;;;;;;;;;;;;;;;;;
2023/11/19 10:23:32;;;;;;;;;;;;;;;;;;;;;
2023/11/19 10:26:50;;;;;;;0.00;0.00;;;;;;;13.89;73.82;99574.22;4935114;28;20066;-80
2023/11/19 10:30:27;;;;;;;;;;;;;;;;;;;;;
2023/11/19 10:33:25;;;;;;;;;;;;;;;;;;;;;
2023/11/19 10:36:23;;;;;;;0.00;0.00;;;;;;;13.12;76.05;99592.22;4963042;28;20372;-77
2023/11/19 10:39:17;;;;;;;;;;;;;;;;;;;;;
2023/11/19 10:42:16;;;;;;;0.00;0.00;;;;;;;12.88;76.61;99543.81;4964930;28;20026;-77
2023/11/19 10:44:53;;;;;;;0.00;0.00;;;;;;;12.93;76.86;99557.44;4942128;28;20291;-76
2023/11/19 10:53:15;;;;;;;0.00;0.00;;;;;;;13.34;75.83;99551.16;4960647;28;20046;-77
2023/11/19 10:56:13;;;;;;;0.00;0.00;;;;;;;13.31;75.72;99583.91;4948338;28;20042;-76
2023/11/19 10:59:05;;;;;;;;;;;;;;;;;;;;;
2023/11/19 11:02:05;;;;;;;0.00;0.00;;;;;;;12.86;77.22;99541.34;4958217;28;20467;-77
2023/11/19 11:04:42;;;;;;;0.00;0.00;;;;;;;12.71;77.69;99523.25;4941415;28;20495;-76
2023/11/19 11:07:09;;;;;;;0.00;0.00;;;;;;;12.79;78.06;99562.06;4945328;28;20474;-78
2023/11/19 11:13:07;;;;;;;0.00;0.00;;;;;;;13.84;75.77;99536.63;4900031;28;20044;-77
2023/11/19 11:25:19;;;;;;;;;;;;;;;;;;;;;
2023/11/19 11:28:15;;;;;;;;;;;;;;;;;;;;;
2023/11/19 11:31:36;;;;;;;;;;;;;;;;;;;;;
2023/11/19 11:34:37;;;;;;;;;;;;;;;;;;;;;
2023/11/19 11:37:08;;;;;;;0.00;0.00;;;;;;;15.03;68.67;99578.59;4903430;29;20035;-79
2023/11/19 11:40:28;;;;;;;0.00;0.00;;;;;;;14.40;69.90;99498.75;4893240;29;20040;-78
2023/11/19 11:43:42;;;;;;;;;;;;;;;;;;;;;
2023/11/19 11:47:24;;;;;;;;;;;;;;;;;;;;;
2023/11/19 11:49:40;;;;;;;0.00;0.00;;;;;;;14.20;72.26;99502.00;4890405;29;20051;-79
2023/11/19 11:52:59;;;;;;;;;;;;;;;;;;;;;
2023/11/19 11:55:38;;;;;;;;;;;;;;;;;;;;;
2023/11/19 11:58:18;;;;;;;0.00;0.00;;;;;;;14.26;71.37;99528.25;4905031;28;20025;-79
2023/11/19 12:01:05;;;;;;;0.00;0.00;;;;;;;14.38;73.27;99549.69;4943944;28;20373;-78
2023/11/19 12:03:33;;;;;;;0.00;0.00;;;;;;;14.27;73.25;99549.94;4945104;28;20400;-81
2023/11/19 12:06:10;;;;;;;0.00;0.00;;;;;;;14.16;73.44;99534.00;4945154;28;20029;-77
2023/11/19 12:08:39;;;;;;;0.00;0.00;;;;;;;14.08;73.85;99535.56;4954007;28;20034;-79
2023/11/19 12:11:12;;;;;;;0.00;0.00;;;;;;;14.00;73.84;99545.34;4944303;28;20059;-79
2023/11/19 12:13:59;;;;;;;0.00;0.00;;;;;;;13.90;73.88;99537.34;4939780;28;20035;-79
2023/11/19 12:16:52;;;;;;;0.00;0.00;;;;;;;13.84;74.97;99530.34;4938976;28;20031;-78
2023/11/19 12:19:19;;;;;;;0.00;0.00;;;;;;;13.89;75.39;99539.28;4932938;28;20150;-78
2023/11/19 12:22:10;;;;;;;0.00;0.00;;;;;;;13.77;76.08;99522.53;4931357;28;20031;-79
2023/11/19 12:24:36;;;;;;;0.00;0.00;;;;;;;13.77;75.91;99530.78;4932236;28;20101;-79
2023/11/19 12:27:17;;;;;;;0.00;0.00;;;;;;;13.67;75.50;99493.34;4915038;28;20051;-77
2023/11/19 12:29:56;;;;;;;0.00;0.00;;;;;;;13.90;75.78;99512.59;4944625;28;20729;-78
2023/11/19 12:33:07;;;;;;;0.00;0.00;;;;;;;14.13;74.96;99539.00;4933154;28;20039;-79
2023/11/19 12:39:13;;;;;;;;;;;;;;;;;;;;;
2023/11/19 12:42:12;;;;;;;0.00;0.00;;;;;;;14.21;75.18;99528.41;4956905;28;20038;-77
2023/11/19 12:45:23;;;;;;;;;;;;;;;;;;;;;
2023/11/19 12:47:59;;;;;;;;;;;;;;;;;;;;;
2023/11/19 12:51:07;;;;;;;;;;;;;;;;;;;;;
2023/11/19 12:53:52;;;;;;;0.00;0.00;;;;;;;14.03;75.49;99521.94;4958617;28;21287;-80
2023/11/19 13:00:34;;;;;;;0.00;0.00;;;;;;;13.79;75.47;99482.63;4952725;28;20046;-80
2023/11/19 13:10:38;;;;;;;;;;;;;;;;;;;;;
2023/11/19 13:13:25;;;;;;;;;;;;;;;;;;;;;
2023/11/19 13:16:11;;;;;;;;;;;;;;;;;;;;;
2023/11/19 13:21:53;;;;;;;0.00;0.00;;;;;;;14.16;76.38;99525.75;4796344;29;20501;-78
2023/11/19 13:24:18;;;;;;;0.00;0.00;;;;;;;13.85;76.23;99553.97;4777208;29;20065;-79
2023/11/19 13:26:48;;;;;;;0.00;0.00;;;;;;;14.00;76.14;99506.88;4873562;29;20087;-80
2023/11/19 13:29:14;;;;;;;0.00;0.00;;;;;;;14.11;76.83;99543.19;4903811;29;20067;-78
2023/11/19 13:31:40;;;;;;;0.00;0.00;;;;;;;13.94;76.42;99508.13;4907793;29;20126;-79
2023/11/19 13:34:07;;;;;;;0.00;0.00;;;;;;;14.04;77.42;99513.38;4939841;28;20416;-78
2023/11/19 13:36:34;;;;;;;0.00;0.00;;;;;;;14.00;77.14;99528.84;4941949;28;20059;-77
2023/11/19 13:38:59;;;;;;;0.00;0.00;;;;;;;13.93;77.75;99522.97;4933531;28;20027;-77
2023/11/19 13:41:28;;;;;;;0.00;0.00;;;;;;;13.98;78.14;99509.13;4946667;28;20034;-77
2023/11/19 13:43:55;;;;;;;0.00;0.00;;;;;;;14.01;77.69;99494.75;4929724;29;20492;-77
2023/11/19 13:46:20;;;;;;;0.00;0.00;;;;;;;14.18;77.17;99509.75;4946076;28;20031;-78
2023/11/19 13:48:49;;;;;;;0.00;0.00;;;;;;;14.41;76.41;99527.06;4941260;28;20110;-77
2023/11/19 13:51:15;;;;;;;0.00;0.00;;;;;;;14.58;76.24;99512.59;4923168;28;20034;-78
2023/11/19 13:53:41;;;;;;;0.00;0.00;;;;;;;14.68;75.40;99520.63;4931127;28;20047;-77
2023/11/19 13:56:12;;;;;;;0.00;0.00;;;;;;;14.50;76.89;99514.19;4932818;28;20570;-79
2023/11/19 13:58:37;;;;;;;0.00;0.00;;;;;;;14.51;76.94;99515.00;4926181;28;20057;-80
2023/11/19 14:01:05;;;;;;;0.00;0.00;;;;;;;14.59;76.23;99526.03;4939090;28;20067;-78
2023/11/19 14:03:31;;;;;;;0.00;0.00;;;;;;;14.20;76.42;99502.81;4947127;28;20031;-81